createdAt,value
2023-04-09T00:02:47.365Z,101090.31
2023-04-09T00:05:50.899Z,101095.63
2023-04-09T00:08:54.184Z,101090.31
2023-04-09T00:11:58.328Z,101093.78
2023-04-09T00:15:01.509Z,101092.94
2023-04-09T00:18:12.892Z,101094.22
2023-04-09T00:21:18.818Z,101091.53
2023-04-09T00:24:22.302Z,101086.41
2023-04-09T00:27:26.081Z,101091.78
2023-04-09T00:30:30.254Z,101081.13
2023-04-09T00:33:33.418Z,101088.75
2023-04-09T00:36:36.559Z,101091.09
2023-04-09T00:39:39.907Z,101089.59
2023-04-09T00:42:43.425Z,101090.75
2023-04-09T00:45:47.217Z,101086.28
2023-04-09T00:48:51.535Z,101090.66
2023-04-09T00:51:55.343Z,101085.88
2023-04-09T00:55:01.250Z,101092.53
2023-04-09T00:58:04.307Z,101083.66
2023-04-09T01:01:08.077Z,101079.63
2023-04-09T01:04:11.522Z,101089.59
2023-04-09T01:07:25.452Z,101083.38
2023-04-09T01:10:43.445Z,101088.31
2023-04-09T01:14:11.863Z,101084.16
2023-04-09T01:17:26.375Z,101077.63
2023-04-09T01:20:35.745Z,101083.38
2023-04-09T01:24:07.946Z,101079.53
2023-04-09T01:27:16.429Z,101076.28
2023-04-09T01:30:30.552Z,101078.81
2023-04-09T01:33:34.784Z,101077.53
2023-04-09T01:36:41.074Z,101084.66
2023-04-09T01:39:45.266Z,101083.41
2023-04-09T01:42:49.698Z,101081.25
2023-04-09T01:45:53.885Z,101079.25
2023-04-09T01:48:57.766Z,101084.56
2023-04-09T01:52:01.061Z,101074.16
2023-04-09T01:55:04.066Z,101078.25
2023-04-09T01:58:07.987Z,101083.63
2023-04-09T02:01:25.054Z,101077.47
2023-04-09T02:04:37.305Z,101081.72
2023-04-09T02:07:47.743Z,101084.06
2023-04-09T02:10:56.744Z,101079.28
2023-04-09T02:14:01.324Z,101083.09
2023-04-09T02:17:04.675Z,101078.50
2023-04-09T02:20:08.651Z,101075.31
2023-04-09T02:23:12.364Z,101074.78
2023-04-09T02:26:15.734Z,101068.06
2023-04-09T02:29:19.585Z,101060.84
2023-04-09T02:32:23.038Z,101068.69
2023-04-09T02:35:26.799Z,101064.25
2023-04-09T02:38:29.904Z,101071.22
2023-04-09T02:41:33.238Z,101060.13
2023-04-09T02:44:36.640Z,101067.66
2023-04-09T02:47:40.366Z,101068.59
2023-04-09T02:50:44.808Z,101067.25
2023-04-09T02:53:48.655Z,101069.03
2023-04-09T02:56:52.039Z,101064.81
2023-04-09T02:59:55.988Z,101055.53
2023-04-09T03:03:00.326Z,101067.22
2023-04-09T03:06:03.729Z,101071.81
2023-04-09T03:09:07.163Z,101069.06
2023-04-09T03:12:10.402Z,101074.94
2023-04-09T03:15:13.983Z,101067.22
2023-04-09T03:18:17.343Z,101067.47
2023-04-09T03:21:21.211Z,101070.16
2023-04-09T03:24:26.794Z,101074.22
2023-04-09T03:27:30.895Z,101078.56
2023-04-09T03:30:34.504Z,101071.41
2023-04-09T03:33:40.413Z,101070.50
2023-04-09T03:36:44.525Z,101077.69
2023-04-09T03:39:55.206Z,101072.34
2023-04-09T03:43:01.353Z,101064.28
2023-04-09T03:46:18.078Z,101071.97
2023-04-09T03:49:24.021Z,101070.34
2023-04-09T03:52:27.325Z,101071.09
2023-04-09T03:55:38.084Z,101075.03
2023-04-09T03:58:49.883Z,101074.84
2023-04-09T04:01:54.291Z,101081.00
2023-04-09T04:04:57.863Z,101083.06
2023-04-09T04:08:05.251Z,101082.88
2023-04-09T04:11:08.863Z,101090.91
2023-04-09T04:14:12.304Z,101088.13
2023-04-09T04:20:42.106Z,101090.31
2023-04-09T04:23:49.058Z,101088.06
2023-04-09T04:27:00.201Z,101091.78
2023-04-09T04:30:09.916Z,101099.78
2023-04-09T04:33:22.960Z,101094.66
2023-04-09T04:36:29.547Z,101091.72
2023-04-09T04:39:32.978Z,101100.06
2023-04-09T04:42:49.225Z,101101.94
2023-04-09T04:45:53.674Z,101099.16
2023-04-09T04:48:59.892Z,101109.16
2023-04-09T04:52:03.723Z,101108.00
2023-04-09T04:55:08.372Z,101105.31
2023-04-09T04:58:11.935Z,101113.69
2023-04-09T05:01:22.341Z,101106.22
2023-04-09T05:04:26.173Z,101112.19
2023-04-09T05:07:30.879Z,101111.97
2023-04-09T05:10:34.758Z,101113.75
2023-04-09T05:13:38.329Z,101118.72
2023-04-09T05:16:45.833Z,101120.25
2023-04-09T05:19:54.153Z,101114.66
2023-04-09T05:23:04.599Z,101111.00
2023-04-09T05:26:13.162Z,101115.19
2023-04-09T05:29:25.557Z,101112.59
2023-04-09T05:32:29.294Z,101111.53
2023-04-09T05:35:33.612Z,101115.19
2023-04-09T05:38:37.078Z,101122.81
2023-04-09T05:41:40.910Z,101124.00
2023-04-09T05:44:58.815Z,101119.94
2023-04-09T05:48:02.352Z,101121.75
2023-04-09T05:51:09.813Z,101124.50
2023-04-09T05:54:13.864Z,101133.72
2023-04-09T05:57:17.979Z,101130.47
2023-04-09T06:00:29.308Z,101136.38
2023-04-09T06:03:32.623Z,101134.53
2023-04-09T06:06:39.186Z,101146.59
2023-04-09T06:09:44.286Z,101131.31
2023-04-09T06:12:48.693Z,101139.34
2023-04-09T06:15:52.539Z,101135.53
2023-04-09T06:18:58.997Z,101135.25
2023-04-09T06:22:06.047Z,101134.25
2023-04-09T06:25:12.658Z,101139.34
2023-04-09T06:28:15.661Z,101135.81
2023-04-09T06:31:18.604Z,101136.88
2023-04-09T06:34:22.022Z,101130.31
2023-04-09T06:37:25.649Z,101139.38
2023-04-09T06:40:28.651Z,101141.78
2023-04-09T06:43:32.781Z,101141.94
2023-04-09T06:46:36.108Z,101145.47
2023-04-09T06:49:39.315Z,101150.41
2023-04-09T06:52:42.591Z,101140.09
2023-04-09T06:55:45.993Z,101153.31
2023-04-09T06:58:49.210Z,101142.78
2023-04-09T07:01:54.553Z,101146.72
2023-04-09T07:04:58.704Z,101149.34
2023-04-09T07:08:01.999Z,101153.97
2023-04-09T07:11:05.144Z,101148.56
2023-04-09T07:14:08.198Z,101161.63
2023-04-09T07:17:11.276Z,101156.16
2023-04-09T07:20:14.456Z,101151.22
2023-04-09T07:23:17.924Z,101158.59
2023-04-09T07:26:21.627Z,101162.31
2023-04-09T07:29:24.617Z,101170.81
2023-04-09T07:32:28.612Z,101167.88
2023-04-09T07:35:33.193Z,101169.31
2023-04-09T07:38:36.301Z,101170.38
2023-04-09T07:41:39.584Z,101169.63
2023-04-09T07:44:44.042Z,101156.31
2023-04-09T07:47:47.681Z,101159.09
2023-04-09T07:50:51.801Z,101172.91
2023-04-09T07:53:55.506Z,101160.25
2023-04-09T07:56:59.076Z,101165.34
2023-04-09T08:00:03.512Z,101169.56
2023-04-09T08:03:17.874Z,101167.69
2023-04-09T08:06:21.774Z,101167.31
2023-04-09T08:09:25.672Z,101176.50
2023-04-09T08:12:29.029Z,101180.00
2023-04-09T08:15:32.881Z,101181.13
2023-04-09T08:18:36.203Z,101179.59
2023-04-09T08:21:43.152Z,101185.78
2023-04-09T08:24:52.065Z,101188.44
2023-04-09T08:27:55.075Z,101193.53
2023-04-09T08:30:58.592Z,101198.50
2023-04-09T08:34:01.770Z,101196.41
2023-04-09T08:37:05.035Z,101203.03
2023-04-09T08:40:09.714Z,101204.94
2023-04-09T08:43:16.764Z,101208.09
2023-04-09T08:46:20.469Z,101204.88
2023-04-09T08:49:23.991Z,101206.06
2023-04-09T08:52:34.699Z,101209.16
2023-04-09T08:55:38.038Z,101214.91
2023-04-09T08:58:43.782Z,101216.50
2023-04-09T09:01:49.564Z,101209.72
2023-04-09T09:04:55.333Z,101204.78
2023-04-09T09:07:58.973Z,101214.16
2023-04-09T09:11:02.287Z,101207.66
2023-04-09T09:14:08.513Z,101206.06
2023-04-09T09:17:12.320Z,101211.13
2023-04-09T09:20:25.648Z,101215.16
2023-04-09T09:23:38.035Z,101217.28
2023-04-09T09:26:41.323Z,101216.50
2023-04-09T09:29:45.367Z,101217.69
2023-04-09T09:32:53.207Z,101216.53
2023-04-09T09:35:58.004Z,101213.03
2023-04-09T09:39:05.506Z,101216.09
2023-04-09T09:42:08.830Z,101215.69
2023-04-09T09:45:19.727Z,101218.41
2023-04-09T09:48:23.481Z,101211.88
2023-04-09T09:51:27.988Z,101213.41
2023-04-09T09:54:39.727Z,101218.06
2023-04-09T09:57:45.818Z,101213.41
2023-04-09T10:00:51.798Z,101206.44
2023-04-09T10:03:57.173Z,101207.28
2023-04-09T10:07:04.681Z,101203.81
2023-04-09T10:10:09.480Z,101199.94
2023-04-09T10:13:19.033Z,101201.88
2023-04-09T10:16:23.560Z,101205.38
2023-04-09T10:19:27.595Z,101208.50
2023-04-09T10:22:33.600Z,101210.84
2023-04-09T10:25:36.748Z,101205.41
2023-04-09T10:28:40.252Z,101200.34
2023-04-09T10:31:47.904Z,101192.94
2023-04-09T10:34:52.156Z,101195.94
2023-04-09T10:37:55.245Z,101194.34
2023-04-09T10:40:58.809Z,101191.25
2023-04-09T10:44:06.729Z,101193.13
2023-04-09T10:47:11.838Z,101189.72
2023-04-09T10:50:16.889Z,101190.00
2023-04-09T10:53:25.425Z,101189.63
2023-04-09T10:56:28.762Z,101183.19
2023-04-09T10:59:32.787Z,101185.44
2023-04-09T11:02:39.562Z,101176.94
2023-04-09T11:05:46.930Z,101187.19
2023-04-09T11:08:50.669Z,101186.06
2023-04-09T11:11:54.068Z,101175.59
2023-04-09T11:14:57.697Z,101181.38
2023-04-09T11:18:02.416Z,101176.09
2023-04-09T11:21:05.999Z,101170.13
2023-04-09T11:24:09.397Z,101174.59
2023-04-09T11:27:13.426Z,101179.28
2023-04-09T11:30:17.645Z,101177.50
2023-04-09T11:33:21.590Z,101181.16
2023-04-09T11:36:25.249Z,101180.28
2023-04-09T11:39:29.193Z,101178.13
2023-04-09T11:42:32.638Z,101181.88
2023-04-09T11:45:36.151Z,101182.88
2023-04-09T11:48:39.569Z,101182.06
2023-04-09T11:51:43.084Z,101197.28
2023-04-09T11:54:50.102Z,101188.97
2023-04-09T11:58:01.404Z,101184.81
2023-04-09T12:01:04.625Z,101176.78
2023-04-09T12:04:09.650Z,101184.75
2023-04-09T12:07:12.943Z,101185.13
2023-04-09T12:10:16.730Z,101191.50
2023-04-09T12:13:20.681Z,101194.22
2023-04-09T12:16:23.839Z,101189.84
2023-04-09T12:19:28.253Z,101190.31
2023-04-09T12:22:31.762Z,101188.69
2023-04-09T12:25:37.039Z,101187.50
2023-04-09T12:28:40.724Z,101195.72
2023-04-09T12:31:45.153Z,101175.97
2023-04-09T12:34:50.129Z,101188.06
2023-04-09T12:37:53.544Z,101186.97
2023-04-09T12:40:56.737Z,101180.19
2023-04-09T12:44:00.216Z,101172.50
2023-04-09T12:47:03.421Z,101175.13
2023-04-09T12:50:08.157Z,101177.72
2023-04-09T12:53:11.877Z,101172.66
2023-04-09T12:56:15.647Z,101163.84
2023-04-09T12:59:19.014Z,101172.38
2023-04-09T13:02:22.241Z,101169.81
2023-04-09T13:05:25.560Z,101166.78
2023-04-09T13:08:29.002Z,101172.38
2023-04-09T13:11:32.427Z,101171.34
2023-04-09T13:14:36.599Z,101165.19
2023-04-09T13:17:39.699Z,101169.09
2023-04-09T13:20:43.273Z,101166.38
2023-04-09T13:23:46.515Z,101166.69
2023-04-09T13:26:49.965Z,101160.41
2023-04-09T13:29:53.481Z,101160.63
2023-04-09T13:32:57.233Z,101154.78
2023-04-09T13:36:03.272Z,101162.63
2023-04-09T13:39:07.206Z,101166.81
2023-04-09T13:42:14.135Z,101157.88
2023-04-09T13:45:20.491Z,101160.00
2023-04-09T13:48:24.665Z,101157.34
2023-04-09T13:51:29.762Z,101150.63
2023-04-09T13:54:34.340Z,101157.94
2023-04-09T13:57:37.909Z,101150.28
2023-04-09T14:00:41.580Z,101158.34
2023-04-09T14:03:45.073Z,101148.78
2023-04-09T14:06:48.536Z,101145.66
2023-04-09T14:09:51.821Z,101147.94
2023-04-09T14:12:54.956Z,101140.47
2023-04-09T14:16:00.349Z,101148.22
2023-04-09T14:19:04.745Z,101148.25
2023-04-09T14:22:09.177Z,101144.19
2023-04-09T14:25:13.740Z,101146.53
2023-04-09T14:28:17.019Z,101136.06
2023-04-09T14:31:23.326Z,101129.44
2023-04-09T14:34:26.675Z,101132.56
2023-04-09T14:37:29.855Z,101143.53
2023-04-09T14:40:33.764Z,101138.16
2023-04-09T14:43:37.062Z,101127.00
2023-04-09T14:46:40.670Z,101132.13
2023-04-09T14:49:44.207Z,101126.03
2023-04-09T14:52:48.406Z,101121.78
2023-04-09T14:55:51.533Z,101122.16
2023-04-09T14:58:55.145Z,101113.31
2023-04-09T15:01:59.286Z,101112.56
2023-04-09T15:05:04.026Z,101118.81
2023-04-09T15:08:07.746Z,101121.59
2023-04-09T15:11:18.398Z,101117.34
2023-04-09T15:14:21.688Z,101122.38
2023-04-09T15:17:26.722Z,101118.09
2023-04-09T15:20:30.057Z,101116.56
2023-04-09T15:23:35.623Z,101119.66
2023-04-09T15:26:39.271Z,101124.28
2023-04-09T15:29:43.420Z,101107.22
2023-04-09T15:32:47.030Z,101106.44
2023-04-09T15:35:50.469Z,101110.72
2023-04-09T15:38:54.104Z,101110.34
2023-04-09T15:41:57.751Z,101107.22
2023-04-09T15:45:00.842Z,101104.88
2023-04-09T15:48:05.290Z,101114.56
2023-04-09T15:51:09.351Z,101116.09
2023-04-09T15:54:12.319Z,101116.88
2023-04-09T15:57:15.420Z,101115.34
2023-04-09T16:00:19.041Z,101116.88
2023-04-09T16:03:22.245Z,101108.72
2023-04-09T16:06:25.639Z,101109.91
2023-04-09T16:09:28.603Z,101101.34
2023-04-09T16:12:31.783Z,101102.13
2023-04-09T16:15:35.255Z,101099.06
2023-04-09T16:18:38.706Z,101090.16
2023-04-09T16:21:44.704Z,101103.31
2023-04-09T16:24:48.653Z,101091.69
2023-04-09T16:27:51.717Z,101095.94
2023-04-09T16:30:55.045Z,101095.53
2023-04-09T16:33:58.503Z,101084.72
2023-04-09T16:37:01.658Z,101087.03
2023-04-09T16:40:05.657Z,101096.31
2023-04-09T16:43:09.182Z,101104.41
2023-04-09T16:46:12.769Z,101098.97
2023-04-09T16:49:16.679Z,101105.50
2023-04-09T16:52:20.227Z,101092.31
2023-04-09T16:55:23.653Z,101103.88
2023-04-09T16:58:27.512Z,101093.38
2023-04-09T17:01:31.748Z,101102.22
2023-04-09T17:04:37.771Z,101104.88
2023-04-09T17:07:41.395Z,101103.25
2023-04-09T17:10:45.129Z,101106.34
2023-04-09T17:13:48.560Z,101109.78
2023-04-09T17:16:54.050Z,101108.94
2023-04-09T17:19:58.974Z,101103.44
2023-04-09T17:23:02.990Z,101118.47
2023-04-09T17:26:06.784Z,101123.72
2023-04-09T17:29:09.908Z,101118.31
2023-04-09T17:32:13.466Z,101126.31
2023-04-09T17:35:16.690Z,101121.19
2023-04-09T17:38:21.757Z,101126.47
2023-04-09T17:41:25.717Z,101122.53
2023-04-09T17:44:30.770Z,101126.72
2023-04-09T17:47:34.209Z,101130.94
2023-04-09T17:50:39.109Z,101135.09
2023-04-09T17:53:42.603Z,101133.50
2023-04-09T17:56:45.930Z,101142.28
2023-04-09T17:59:49.362Z,101144.91
2023-04-09T18:02:54.168Z,101153.75
2023-04-09T18:05:57.692Z,101148.22
2023-04-09T18:09:00.870Z,101157.44
2023-04-09T18:12:04.513Z,101154.72
2023-04-09T18:15:08.107Z,101160.81
2023-04-09T18:18:11.194Z,101162.78
2023-04-09T18:21:15.451Z,101162.22
2023-04-09T18:24:18.754Z,101167.53
2023-04-09T18:27:21.805Z,101166.72
2023-04-09T18:30:26.454Z,101173.59
2023-04-09T18:33:29.753Z,101174.31
2023-04-09T18:36:33.108Z,101178.41
2023-04-09T18:39:37.730Z,101177.34
2023-04-09T18:42:40.754Z,101171.75
2023-04-09T18:45:43.881Z,101179.34
2023-04-09T18:48:47.553Z,101191.69
2023-04-09T18:51:50.795Z,101181.50
2023-04-09T18:54:54.091Z,101189.06
2023-04-09T18:57:57.643Z,101187.69
2023-04-09T19:01:01.485Z,101190.16
2023-04-09T19:04:04.759Z,101193.84
2023-04-09T19:07:08.626Z,101193.09
2023-04-09T19:10:13.187Z,101200.50
2023-04-09T19:13:17.159Z,101200.53
2023-04-09T19:16:21.720Z,101195.84
2023-04-09T19:19:25.050Z,101199.69
2023-04-09T19:22:28.680Z,101197.69
2023-04-09T19:25:34.360Z,101194.91
2023-04-09T19:28:37.832Z,101197.50
2023-04-09T19:31:41.719Z,101195.94
2023-04-09T19:34:45.305Z,101203.91
2023-04-09T19:37:48.881Z,101204.91
2023-04-09T19:40:52.402Z,101202.44
2023-04-09T19:43:55.874Z,101205.66
2023-04-09T19:46:59.702Z,101201.34
2023-04-09T19:50:02.930Z,101205.44
2023-04-09T19:53:06.342Z,101193.94
2023-04-09T19:56:09.923Z,101200.81
2023-04-09T19:59:13.012Z,101202.59
2023-04-09T20:02:16.591Z,101202.59
2023-04-09T20:05:23.604Z,101201.75
2023-04-09T20:08:29.842Z,101207.78
2023-04-09T20:11:33.019Z,101203.50
2023-04-09T20:14:38.289Z,101208.19
2023-04-09T20:17:42.164Z,101202.69
2023-04-09T20:20:50.885Z,101203.31
2023-04-09T20:23:54.384Z,101208.19
2023-04-09T20:26:57.738Z,101206.13
2023-04-09T20:30:03.437Z,101203.66
2023-04-09T20:33:07.549Z,101203.00
2023-04-09T20:36:15.783Z,101200.53
2023-04-09T20:39:19.658Z,101198.63
2023-04-09T20:42:23.042Z,101197.75
2023-04-09T20:45:26.451Z,101200.19
2023-04-09T20:48:31.664Z,101201.69
2023-04-09T20:51:34.950Z,101201.59
2023-04-09T20:54:38.198Z,101191.00
2023-04-09T20:57:41.780Z,101196.41
2023-04-09T21:00:46.788Z,101199.97
2023-04-09T21:03:50.298Z,101195.66
2023-04-09T21:06:53.493Z,101209.91
2023-04-09T21:09:56.688Z,101207.47
2023-04-09T21:12:59.832Z,101204.03
2023-04-09T21:16:04.034Z,101201.03
2023-04-09T21:19:07.479Z,101198.94
2023-04-09T21:22:11.384Z,101200.28
2023-04-09T21:25:15.528Z,101207.75
2023-04-09T21:28:19.273Z,101202.91
2023-04-09T21:31:23.917Z,101204.22
2023-04-09T21:34:27.071Z,101202.81
2023-04-09T21:37:32.007Z,101198.94
2023-04-09T21:40:35.580Z,101207.47
2023-04-09T21:43:38.710Z,101208.69
2023-04-09T21:46:41.961Z,101204.47
2023-04-09T21:49:46.524Z,101205.44
2023-04-09T21:52:50.273Z,101207.28
2023-04-09T21:55:53.638Z,101204.88
2023-04-09T21:58:56.629Z,101204.03
2023-04-09T22:02:00.255Z,101215.72
2023-04-09T22:05:04.316Z,101216.00
2023-04-09T22:08:07.800Z,101220.53
2023-04-09T22:11:11.127Z,101217.50
2023-04-09T22:14:16.579Z,101224.28
2023-04-09T22:17:19.728Z,101219.53
2023-04-09T22:20:26.427Z,101220.00
2023-04-09T22:23:29.618Z,101231.59
2023-04-09T22:26:32.781Z,101221.44
2023-04-09T22:29:37.219Z,101229.00
2023-04-09T22:32:40.433Z,101221.63
2023-04-09T22:35:43.966Z,101225.03
2023-04-09T22:38:47.521Z,101220.69
2023-04-09T22:41:50.701Z,101220.97
2023-04-09T22:44:54.200Z,101224.53
2023-04-09T22:47:57.866Z,101226.28
2023-04-09T22:51:02.753Z,101217.84
2023-04-09T22:54:06.367Z,101221.59
2023-04-09T22:57:09.407Z,101226.97
2023-04-09T23:00:13.318Z,101219.13
2023-04-09T23:03:17.285Z,101220.53
2023-04-09T23:06:21.920Z,101215.59
2023-04-09T23:09:25.330Z,101214.22
2023-04-09T23:12:29.188Z,101218.13
2023-04-09T23:15:32.364Z,101210.56
2023-04-09T23:18:36.570Z,101223.22
2023-04-09T23:21:39.764Z,101222.22
2023-04-09T23:24:43.087Z,101215.59
2023-04-09T23:27:46.778Z,101212.81
2023-04-09T23:30:50.059Z,101212.41
2023-04-09T23:33:53.593Z,101218.75
2023-04-09T23:36:56.932Z,101210.06
2023-04-09T23:40:00.628Z,101209.38
2023-04-09T23:43:03.830Z,101208.41
2023-04-09T23:46:07.500Z,101207.38
2023-04-09T23:49:10.736Z,101210.66
2023-04-09T23:52:14.269Z,101210.22
2023-04-09T23:55:17.682Z,101204.25
2023-04-09T23:58:22.039Z,101200.34
